Time;durP1;ratioP1;P1;durP2;ratioP2;P2;SDS_P1;SDS_P2;PMS_P1;PMS_P2;Temp;Humidity;BMP_temperature;BMP_pressure;BME280_temperature;BME280_humidity;BME280_pressure;Samples;Min_cycle;Max_cycle;Signal;HPM_P1;HPM_P2
2021/05/26 00:01:33;;;;;;;3.67;1.88;;;;;;;6.45;56.21;100983.56;4975058;28;20034;-66
2021/05/26 00:03:59;;;;;;;3.08;2.30;;;;;;;6.45;56.52;100974.03;4976727;28;20487;-66
2021/05/26 00:06:24;;;;;;;3.35;1.83;;;;;;;6.62;56.01;100972.78;4975953;28;20029;-70
2021/05/26 00:08:50;;;;;;;4.00;2.03;;;;;;;6.48;56.55;100973.97;4978610;28;20085;-64
2021/05/26 00:11:17;;;;;;;3.65;2.35;;;;;;;6.57;56.33;100969.44;4976330;28;20456;-67
2021/05/26 00:13:44;;;;;;;4.40;3.42;;;;;;;6.66;56.35;100967.53;4976047;28;20105;-66
2021/05/26 00:16:10;;;;;;;3.70;2.38;;;;;;;6.72;56.33;100961.31;4971271;28;20031;-65
2021/05/26 00:18:36;;;;;;;2.63;2.30;;;;;;;6.73;56.15;100965.66;4975639;28;20038;-64
2021/05/26 00:21:04;;;;;;;4.88;3.13;;;;;;;6.75;55.81;100963.84;4958655;28;20049;-65
2021/05/26 00:23:29;;;;;;;3.03;2.28;;;;;;;6.82;56.07;100960.25;4977240;28;20524;-65
2021/05/26 00:25:55;;;;;;;6.28;2.80;;;;;;;6.98;56.00;100962.50;4956868;28;20031;-65
2021/05/26 00:28:21;;;;;;;3.33;2.95;;;;;;;7.09;56.21;100957.88;4974905;28;20034;-64
2021/05/26 00:30:49;;;;;;;6.47;3.20;;;;;;;7.13;56.02;100951.69;4976185;28;20502;-65
2021/05/26 00:33:16;;;;;;;6.22;4.05;;;;;;;7.08;56.04;100948.38;4973052;28;20159;-64
2021/05/26 00:35:42;;;;;;;9.23;4.10;;;;;;;6.94;57.22;100947.84;4975183;28;20038;-67
2021/05/26 00:38:08;;;;;;;7.88;4.75;;;;;;;7.08;56.73;100938.81;4959038;28;20045;-66
2021/05/26 00:40:34;;;;;;;6.05;4.30;;;;;;;7.22;56.38;100940.22;4971420;28;20441;-65
2021/05/26 00:42:59;;;;;;;5.78;4.40;;;;;;;7.37;56.33;100939.00;4977256;28;20030;-66
2021/05/26 00:45:25;;;;;;;7.97;4.72;;;;;;;7.46;56.14;100943.94;4954534;28;20038;-65
2021/05/26 00:47:51;;;;;;;11.38;5.85;;;;;;;7.12;57.41;100935.25;4974723;28;20054;-65
2021/05/26 00:50:20;;;;;;;9.82;5.45;;;;;;;7.39;56.70;100932.00;4976141;28;20129;-65
2021/05/26 00:52:47;;;;;;;8.82;6.13;;;;;;;7.40;57.50;100934.56;4975823;28;20026;-65
2021/05/26 00:55:19;;;;;;;10.63;6.82;;;;;;;7.07;58.74;100931.91;4974230;28;20153;-66
2021/05/26 00:57:47;;;;;;;12.75;6.68;;;;;;;7.17;58.82;100927.34;4971248;28;20027;-65
2021/05/26 01:00:14;;;;;;;10.45;5.78;;;;;;;7.57;57.87;100926.34;4974309;28;20065;-65
2021/05/26 01:02:41;;;;;;;11.65;5.85;;;;;;;7.03;59.23;100919.03;4974292;28;20066;-65
2021/05/26 01:05:09;;;;;;;12.10;5.30;;;;;;;7.47;58.27;100927.47;4976563;28;20538;-65
2021/05/26 01:07:38;;;;;;;10.30;6.65;;;;;;;7.35;58.70;100922.56;4971973;28;20056;-66
2021/05/26 01:10:04;;;;;;;10.50;6.80;;;;;;;6.97;59.88;100921.78;4957957;28;20117;-66
2021/05/26 01:12:42;;;;;;;12.25;7.28;;;;;;;7.28;58.77;100925.31;4973957;28;20053;-67
2021/05/26 01:15:10;;;;;;;18.13;8.93;;;;;;;6.21;62.16;100918.25;4964944;28;20038;-67
2021/05/26 01:17:37;;;;;;;20.23;8.00;;;;;;;6.78;60.53;100919.63;4962402;28;20065;-67
2021/05/26 01:20:06;;;;;;;11.93;7.60;;;;;;;6.74;60.48;100915.38;4971896;28;20023;-67
2021/05/26 01:22:33;;;;;;;11.27;7.63;;;;;;;7.30;59.13;100922.69;4955434;28;20026;-67
2021/05/26 01:24:59;;;;;;;11.70;6.97;;;;;;;7.49;58.16;100912.69;4971935;28;20061;-67
2021/05/26 01:27:26;;;;;;;12.88;7.65;;;;;;;7.51;58.11;100916.06;4959971;28;20105;-67
2021/05/26 01:29:59;;;;;;;11.38;7.38;;;;;;;7.82;57.59;100912.69;4958949;28;20026;-66
2021/05/26 01:32:25;;;;;;;15.23;6.55;;;;;;;7.58;57.83;100909.88;4976139;28;20019;-65
2021/05/26 01:34:50;;;;;;;11.57;6.78;;;;;;;7.76;57.12;100905.91;4971151;28;20038;-66
2021/05/26 01:37:17;;;;;;;13.18;6.15;;;;;;;7.56;58.24;100911.66;4972414;28;20343;-66
2021/05/26 01:39:48;;;;;;;9.23;5.55;;;;;;;7.81;57.20;100901.41;4956714;28;20033;-68
2021/05/26 01:42:30;;;;;;;8.07;6.00;;;;;;;7.76;57.50;100899.81;4980033;28;20053;-71
2021/05/26 01:44:55;;;;;;;11.00;5.38;;;;;;;7.82;56.76;100894.47;4965586;28;20030;-68
2021/05/26 01:47:29;;;;;;;9.57;4.68;;;;;;;7.00;59.01;100893.09;4973973;28;20054;-67
2021/05/26 01:49:56;;;;;;;9.82;4.60;;;;;;;6.49;60.38;100897.78;4973360;28;20026;-66
2021/05/26 01:52:22;;;;;;;9.82;4.10;;;;;;;7.14;58.36;100895.38;4973991;28;20026;-67
2021/05/26 01:54:47;;;;;;;8.32;4.18;;;;;;;7.42;57.52;100891.19;4974973;28;20026;-66
2021/05/26 01:57:13;;;;;;;9.07;3.88;;;;;;;7.57;56.52;100892.53;4957776;28;20034;-67
2021/05/26 01:59:40;;;;;;;6.80;4.05;;;;;;;7.24;57.57;100892.50;4972230;28;20435;-67
2021/05/26 02:02:08;;;;;;;5.57;3.65;;;;;;;7.26;57.53;100893.31;4960048;28;20073;-67
2021/05/26 02:04:36;;;;;;;6.05;3.15;;;;;;;7.05;58.48;100893.88;4975357;28;20077;-66
2021/05/26 02:07:12;;;;;;;10.57;4.70;;;;;;;7.11;57.72;100896.31;4973403;28;20031;-66
2021/05/26 02:09:39;;;;;;;9.68;3.55;;;;;;;7.02;58.03;100883.53;4972780;28;20042;-67
2021/05/26 02:12:23;;;;;;;5.65;3.83;;;;;;;6.95;58.22;100884.59;4974677;28;20114;-68
2021/05/26 02:14:55;;;;;;;7.93;5.03;;;;;;;6.79;58.63;100889.31;4974180;28;20061;-68
2021/05/26 02:17:22;;;;;;;9.52;3.88;;;;;;;6.63;58.69;100888.81;4971184;28;20054;-66
2021/05/26 02:19:51;;;;;;;6.88;3.88;;;;;;;6.38;59.02;100884.19;4965767;28;20030;-69
2021/05/26 02:22:17;;;;;;;4.65;3.78;;;;;;;7.02;57.16;100880.94;4961115;28;20037;-70
2021/05/26 02:24:43;;;;;;;7.82;4.10;;;;;;;6.97;57.15;100877.59;4973320;28;20397;-70
2021/05/26 02:27:09;;;;;;;10.88;3.92;;;;;;;6.62;57.93;100867.19;4971633;28;20062;-70
2021/05/26 02:29:35;;;;;;;8.10;3.35;;;;;;;6.66;57.90;100873.16;4975599;28;20510;-70
2021/05/26 02:32:02;;;;;;;7.47;4.38;;;;;;;6.84;57.17;100872.72;4973234;28;20030;-70
2021/05/26 02:34:35;;;;;;;10.30;4.43;;;;;;;6.40;58.56;100874.63;4963288;28;20403;-70
2021/05/26 02:37:02;;;;;;;8.63;4.18;;;;;;;6.55;57.62;100876.03;4941068;28;20039;-66
2021/05/26 02:39:28;;;;;;;7.45;4.10;;;;;;;6.44;57.46;100872.78;4974844;28;20034;-65
2021/05/26 02:41:55;;;;;;;7.75;4.70;;;;;;;6.66;57.10;100871.44;4976527;28;20090;-65
2021/05/26 02:44:21;;;;;;;13.02;5.38;;;;;;;6.29;58.53;100871.41;4977685;28;20102;-65
2021/05/26 02:46:48;;;;;;;10.45;4.68;;;;;;;6.57;57.01;100865.56;4948049;28;20042;-65
2021/05/26 02:49:14;;;;;;;14.25;6.25;;;;;;;6.28;58.02;100867.97;4978036;28;20437;-66
2021/05/26 02:51:41;;;;;;;10.05;3.95;;;;;;;6.45;57.17;100864.13;4975664;28;20549;-64
2021/05/26 02:54:07;;;;;;;8.05;4.47;;;;;;;6.22;57.84;100868.06;4975715;28;20043;-65
2021/05/26 02:56:34;;;;;;;5.97;5.28;;;;;;;5.87;58.96;100868.81;4976106;28;20395;-65
2021/05/26 02:59:18;;;;;;;5.47;4.60;;;;;;;6.18;57.78;100873.34;4978171;28;20045;-65
2021/05/26 03:02:02;;;;;;;5.80;4.43;;;;;;;5.98;58.09;100887.59;4976727;28;20097;-66
2021/05/26 03:04:43;;;;;;;8.32;5.53;;;;;;;5.98;58.54;100879.81;4962864;28;20569;-66
2021/05/26 03:07:09;;;;;;;12.32;5.15;;;;;;;6.14;58.36;100874.31;4976448;28;20042;-66
2021/05/26 03:09:35;;;;;;;11.55;5.28;;;;;;;6.33;57.72;100870.47;4966962;28;20506;-65
2021/05/26 03:12:02;;;;;;;13.48;5.28;;;;;;;6.21;57.69;100871.53;4973741;28;20043;-65
2021/05/26 03:14:37;;;;;;;7.72;4.70;;;;;;;6.15;58.00;100863.03;4977256;28;20432;-67
2021/05/26 03:17:08;;;;;;;6.82;5.38;;;;;;;6.20;57.71;100874.19;4961241;28;20031;-66
2021/05/26 03:19:34;;;;;;;7.35;4.95;;;;;;;6.50;57.26;100865.72;4976421;28;20523;-69
2021/05/26 03:22:23;;;;;;;8.48;4.90;;;;;;;6.49;57.29;100858.81;4965262;28;20047;-68
2021/05/26 03:25:12;;;;;;;10.45;5.30;;;;;;;6.27;58.21;100858.41;4961952;28;20502;-68
2021/05/26 03:27:39;;;;;;;10.52;5.18;;;;;;;6.34;57.55;100856.56;4969676;28;20062;-69
2021/05/26 03:30:08;;;;;;;10.10;5.20;;;;;;;6.27;58.14;100852.38;4977124;28;20030;-69
2021/05/26 03:32:34;;;;;;;11.55;4.78;;;;;;;6.40;57.63;100851.25;4976186;28;20070;-69
2021/05/26 03:35:00;;;;;;;9.38;5.72;;;;;;;6.38;57.39;100850.44;4960615;28;20495;-68
2021/05/26 03:37:27;;;;;;;8.70;6.18;;;;;;;6.04;58.46;100848.56;4976957;28;20138;-68
2021/05/26 03:39:53;;;;;;;9.05;4.28;;;;;;;6.09;58.54;100841.50;4968080;28;20030;-68
2021/05/26 03:42:21;;;;;;;6.40;4.28;;;;;;;6.25;57.22;100842.03;4974434;28;20062;-69
2021/05/26 03:44:47;;;;;;;8.63;5.05;;;;;;;5.52;59.47;100848.75;4975988;28;20034;-68
2021/05/26 03:47:13;;;;;;;5.43;4.75;;;;;;;5.80;58.35;100839.53;4977370;28;20045;-65
2021/05/26 03:49:39;;;;;;;8.82;4.55;;;;;;;5.90;58.00;100840.19;4977057;28;20788;-66
2021/05/26 03:52:07;;;;;;;8.45;5.07;;;;;;;5.62;58.81;100847.69;4977133;28;20522;-65
2021/05/26 03:54:34;;;;;;;8.98;5.20;;;;;;;5.51;58.73;100847.06;4976587;28;20130;-67
2021/05/26 03:57:01;;;;;;;6.93;5.45;;;;;;;5.87;58.05;100846.31;4975724;28;20122;-66
2021/05/26 03:59:27;;;;;;;10.40;5.25;;;;;;;5.52;58.92;100849.59;4973724;28;20380;-64
2021/05/26 04:01:53;;;;;;;11.73;5.97;;;;;;;5.64;58.58;100849.38;4960644;28;20239;-64
2021/05/26 04:04:18;;;;;;;9.90;5.47;;;;;;;5.65;58.67;100845.88;4977708;28;20054;-67
2021/05/26 04:06:44;;;;;;;9.88;5.72;;;;;;;4.86;61.07;100842.16;4976912;28;20035;-68
2021/05/26 04:09:13;;;;;;;7.72;5.13;;;;;;;5.36;59.34;100837.81;4960217;28;20105;-67
2021/05/26 04:11:41;;;;;;;11.68;5.70;;;;;;;5.55;58.76;100843.53;4976203;28;20046;-67
2021/05/26 04:14:33;;;;;;;9.90;5.65;;;;;;;5.52;59.40;100844.41;4962706;28;20051;-67
2021/05/26 04:17:17;;;;;;;10.65;5.13;;;;;;;5.28;60.02;100850.06;4976063;28;20057;-68
2021/05/26 04:19:49;;;;;;;12.63;5.25;;;;;;;5.82;58.40;100847.31;4975424;28;20034;-67
2021/05/26 04:22:16;;;;;;;13.13;6.97;;;;;;;5.90;58.46;100837.59;4959692;28;20248;-67
2021/05/26 04:24:49;;;;;;;7.82;5.82;;;;;;;6.04;58.08;100842.50;4967087;28;20256;-65
2021/05/26 04:27:15;;;;;;;11.98;6.47;;;;;;;6.21;58.05;100844.72;4960574;28;20110;-65
2021/05/26 04:29:42;;;;;;;12.82;5.60;;;;;;;5.97;58.78;100841.78;4974701;28;20045;-65
2021/05/26 04:32:08;;;;;;;9.52;6.25;;;;;;;6.00;59.60;100839.13;4974887;28;20415;-65
2021/05/26 04:34:33;;;;;;;10.10;5.63;;;;;;;6.55;57.47;100836.19;4973856;28;20092;-67
2021/05/26 04:36:59;;;;;;;13.27;6.40;;;;;;;6.22;58.26;100833.47;4960556;28;20031;-65
2021/05/26 04:39:24;;;;;;;8.85;6.80;;;;;;;6.26;58.64;100832.50;4975598;28;20037;-66
2021/05/26 04:41:50;;;;;;;8.00;5.70;;;;;;;6.89;57.24;100839.69;4977678;28;20030;-65
2021/05/26 04:44:15;;;;;;;8.50;5.28;;;;;;;6.67;58.16;100838.50;4972280;28;20046;-67
2021/05/26 04:46:41;;;;;;;11.77;5.93;;;;;;;7.36;56.60;100828.09;4976286;28;20039;-67
2021/05/26 04:49:06;;;;;;;6.38;5.22;;;;;;;7.28;56.38;100831.72;4974718;28;20038;-66
2021/05/26 04:51:32;;;;;;;9.32;5.20;;;;;;;7.78;55.15;100819.97;4973898;28;20030;-66
2021/05/26 04:53:57;;;;;;;6.50;4.80;;;;;;;7.74;55.45;100825.28;4976976;28;20030;-65
2021/05/26 04:56:23;;;;;;;7.78;4.32;;;;;;;8.23;54.91;100817.75;4976044;28;20506;-65
2021/05/26 04:58:48;;;;;;;9.43;4.60;;;;;;;8.64;52.92;100817.34;4973858;28;20080;-66
2021/05/26 05:01:16;;;;;;;8.57;4.25;;;;;;;9.34;50.83;100804.53;4960784;28;20030;-66
2021/05/26 05:03:41;;;;;;;7.55;4.10;;;;;;;9.43;49.99;100807.69;4972483;28;20526;-66
2021/05/26 05:06:08;;;;;;;6.15;3.67;;;;;;;10.36;47.64;100803.31;4972975;28;20065;-67
2021/05/26 05:08:33;;;;;;;8.93;3.78;;;;;;;10.45;48.04;100796.88;4974589;28;20110;-67
2021/05/26 05:10:59;;;;;;;6.75;3.47;;;;;;;9.80;48.46;100802.00;4973420;28;20153;-67
2021/05/26 05:13:25;;;;;;;12.35;4.32;;;;;;;7.92;54.16;100797.88;4972590;28;20034;-67
2021/05/26 05:15:50;;;;;;;4.82;3.95;;;;;;;8.28;53.65;100795.03;4974659;28;20034;-67
2021/05/26 05:18:16;;;;;;;7.18;4.15;;;;;;;8.08;54.53;100798.25;4971996;28;20033;-67
2021/05/26 05:20:41;;;;;;;6.93;5.22;;;;;;;8.41;53.93;100795.50;4974073;28;20145;-65
2021/05/26 05:23:07;;;;;;;6.25;4.20;;;;;;;8.13;54.13;100787.69;4973633;28;20045;-68
2021/05/26 05:25:33;;;;;;;8.65;5.18;;;;;;;9.79;51.76;100785.50;4976417;28;20128;-68
2021/05/26 05:27:58;;;;;;;8.10;4.57;;;;;;;9.39;51.35;100786.94;4973965;28;20416;-68
2021/05/26 05:30:24;;;;;;;6.85;5.18;;;;;;;9.84;50.35;100779.25;4978053;28;20495;-68
2021/05/26 05:32:50;;;;;;;8.80;5.13;;;;;;;11.51;48.27;100768.78;4973631;28;20109;-70
2021/05/26 05:35:15;;;;;;;12.38;4.70;;;;;;;13.13;42.02;100772.31;4962009;28;20035;-69
2021/05/26 05:37:41;;;;;;;10.07;4.32;;;;;;;11.21;48.20;100771.88;4973088;28;20636;-71
2021/05/26 05:40:07;;;;;;;7.57;4.85;;;;;;;11.08;47.26;100768.94;4976175;28;20030;-70
2021/05/26 05:42:33;;;;;;;7.97;4.55;;;;;;;9.45;51.00;100765.00;4974544;28;20092;-68
2021/05/26 05:44:58;;;;;;;6.68;4.43;;;;;;;9.56;51.02;100768.03;4974637;28;20078;-70
2021/05/26 05:47:24;;;;;;;8.82;4.85;;;;;;;9.92;51.26;100769.34;4974950;28;20035;-68
2021/05/26 05:49:49;;;;;;;6.18;5.25;;;;;;;8.27;54.63;100779.44;4973417;28;20042;-67
2021/05/26 05:52:15;;;;;;;6.88;5.82;;;;;;;8.24;55.67;100766.53;4960440;28;20321;-68
2021/05/26 05:54:41;;;;;;;9.88;6.25;;;;;;;9.99;51.34;100765.59;4976114;28;20333;-71
2021/05/26 05:57:07;;;;;;;5.72;4.68;;;;;;;9.73;51.16;100756.97;4976598;28;20057;-68
2021/05/26 05:59:33;;;;;;;7.78;4.35;;;;;;;9.48;51.64;100759.69;4973445;28;20046;-69
2021/05/26 06:01:59;;;;;;;12.05;5.55;;;;;;;9.08;53.48;100762.88;4976591;28;20031;-68
2021/05/26 06:04:25;;;;;;;5.75;4.88;;;;;;;9.35;53.00;100761.88;4944158;28;20034;-69
2021/05/26 06:06:51;;;;;;;5.85;5.20;;;;;;;9.55;52.72;100762.91;4975167;28;20039;-68
2021/05/26 06:09:16;;;;;;;5.50;4.97;;;;;;;8.84;54.16;100752.41;4975464;28;20037;-68
2021/05/26 06:11:42;;;;;;;4.93;4.35;;;;;;;8.92;54.31;100767.78;4971906;28;20027;-70
2021/05/26 06:14:08;;;;;;;8.27;4.50;;;;;;;8.84;53.90;100760.22;4973687;28;20446;-70
2021/05/26 06:16:37;;;;;;;7.40;4.68;;;;;;;9.61;51.68;100757.47;4979660;28;20087;-69
2021/05/26 06:19:04;;;;;;;6.93;4.50;;;;;;;9.78;51.72;100751.59;4957584;28;20042;-66
2021/05/26 06:21:30;;;;;;;6.47;3.92;;;;;;;8.69;54.78;100750.28;4978103;28;20042;-67
2021/05/26 06:23:56;;;;;;;5.30;4.75;;;;;;;9.23;53.16;100748.44;4962315;28;20034;-65
2021/05/26 06:26:22;;;;;;;8.75;4.78;;;;;;;9.40;53.12;100746.91;4974157;28;20053;-65
2021/05/26 06:28:48;;;;;;;8.88;4.35;;;;;;;8.94;53.40;100745.97;4977337;28;20112;-66
2021/05/26 06:31:15;;;;;;;8.18;4.55;;;;;;;8.59;54.60;100751.53;4964530;28;20385;-66
2021/05/26 06:33:44;;;;;;;10.55;5.15;;;;;;;8.69;54.38;100751.13;4977272;28;20042;-64
2021/05/26 06:36:10;;;;;;;6.75;4.13;;;;;;;9.19;53.45;100747.72;4979850;28;20400;-66
2021/05/26 06:38:35;;;;;;;4.38;3.97;;;;;;;8.95;53.85;100752.03;4980272;28;20062;-65
2021/05/26 06:41:02;;;;;;;9.77;3.88;;;;;;;9.27;52.42;100756.09;4978594;28;20038;-66
2021/05/26 06:43:27;;;;;;;4.68;3.80;;;;;;;9.38;51.93;100740.88;4978894;28;20030;-65
2021/05/26 06:45:53;;;;;;;6.32;3.67;;;;;;;9.26;53.07;100741.34;4978780;28;20042;-66
2021/05/26 06:48:18;;;;;;;4.85;4.00;;;;;;;9.27;52.91;100735.22;4977883;28;20105;-65
2021/05/26 06:50:44;;;;;;;7.43;3.38;;;;;;;9.37;52.81;100741.81;4974200;28;20502;-66
2021/05/26 06:53:09;;;;;;;10.30;3.35;;;;;;;9.58;51.63;100740.13;4976690;28;20092;-65
2021/05/26 06:55:35;;;;;;;7.03;4.50;;;;;;;8.89;53.83;100732.22;4972941;28;20101;-66
2021/05/26 06:58:00;;;;;;;6.20;3.22;;;;;;;9.04;52.66;100741.28;4958109;28;20038;-67
2021/05/26 07:00:26;;;;;;;8.20;3.33;;;;;;;8.52;53.68;100737.84;4974480;28;20031;-67
2021/05/26 07:02:51;;;;;;;4.60;4.05;;;;;;;8.35;54.66;100743.59;4976377;28;20031;-66
2021/05/26 07:05:17;;;;;;;3.60;3.10;;;;;;;9.09;53.48;100741.09;4976884;28;20034;-65
2021/05/26 07:07:42;;;;;;;4.03;3.13;;;;;;;8.59;53.47;100736.72;4971945;28;20061;-66
2021/05/26 07:10:08;;;;;;;3.70;2.72;;;;;;;9.38;51.79;100738.28;4976064;28;20041;-66
2021/05/26 07:12:34;;;;;;;3.67;3.00;;;;;;;9.63;50.31;100736.50;4973430;28;20113;-67
2021/05/26 07:14:59;;;;;;;3.50;2.22;;;;;;;8.85;52.75;100743.69;4973695;28;20038;-65
2021/05/26 07:17:25;;;;;;;3.55;2.47;;;;;;;9.29;51.53;100733.41;4978323;28;20061;-66
2021/05/26 07:19:50;;;;;;;8.70;3.75;;;;;;;9.50;50.83;100747.44;4975046;28;20089;-66
2021/05/26 07:22:16;;;;;;;4.32;2.60;;;;;;;8.78;52.28;100731.75;4974625;28;20429;-66
2021/05/26 07:24:41;;;;;;;3.55;2.58;;;;;;;8.67;52.80;100729.50;4978091;28;20110;-67
2021/05/26 07:27:07;;;;;;;4.95;2.67;;;;;;;8.75;52.66;100737.09;4976000;28;20586;-67
2021/05/26 07:29:33;;;;;;;15.23;2.95;;;;;;;9.06;51.77;100741.22;4976689;28;20397;-66
2021/05/26 07:31:59;;;;;;;3.38;2.05;;;;;;;9.45;51.09;100738.06;4976724;28;20428;-68
2021/05/26 07:34:25;;;;;;;3.58;1.92;;;;;;;9.04;51.41;100733.44;4979855;28;20053;-66
2021/05/26 07:36:53;;;;;;;3.10;2.25;;;;;;;9.06;51.42;100738.63;4977548;28;20371;-66
2021/05/26 07:39:19;;;;;;;6.53;2.70;;;;;;;9.42;50.87;100738.19;4978860;28;20034;-66
2021/05/26 07:41:45;;;;;;;4.32;2.33;;;;;;;9.16;51.29;100737.38;4979947;28;20068;-66
2021/05/26 07:44:10;;;;;;;5.95;2.15;;;;;;;9.11;50.88;100731.47;4975609;28;20151;-65
2021/05/26 07:46:36;;;;;;;4.70;2.28;;;;;;;9.56;50.37;100735.91;4981210;28;20038;-66
2021/05/26 07:49:02;;;;;;;3.20;1.73;;;;;;;9.90;49.93;100719.81;4972501;28;20041;-66
2021/05/26 07:51:29;;;;;;;2.17;1.80;;;;;;;10.19;48.82;100718.66;4973349;28;20041;-68
2021/05/26 07:53:55;;;;;;;2.83;1.58;;;;;;;10.33;48.11;100714.63;4959135;28;20051;-64
2021/05/26 07:56:21;;;;;;;1.52;1.42;;;;;;;10.13;48.01;100721.50;4965453;28;20049;-66
2021/05/26 07:58:47;;;;;;;4.32;1.15;;;;;;;9.83;48.30;100723.56;4954935;28;20030;-66
2021/05/26 08:01:13;;;;;;;1.98;1.50;;;;;;;10.54;48.39;100726.78;4971049;28;20125;-67
2021/05/26 08:03:38;;;;;;;3.65;1.85;;;;;;;10.57;47.65;100720.56;4973733;28;20095;-66
2021/05/26 08:06:04;;;;;;;3.00;1.20;;;;;;;11.31;46.23;100717.34;4976138;28;20399;-65
2021/05/26 08:08:30;;;;;;;3.83;1.42;;;;;;;10.11;49.10;100712.88;4975193;28;20040;-66
2021/05/26 08:10:56;;;;;;;2.08;1.10;;;;;;;10.74;48.41;100714.63;4974944;28;20081;-66
2021/05/26 08:13:21;;;;;;;5.25;2.28;;;;;;;10.28;48.14;100716.56;4972716;28;20038;-66
2021/05/26 08:15:47;;;;;;;2.00;1.20;;;;;;;9.94;48.21;100710.09;4975272;28;20465;-66
2021/05/26 08:18:12;;;;;;;3.70;2.33;;;;;;;9.68;48.60;100717.16;4974172;28;20043;-66
2021/05/26 08:20:41;;;;;;;1.40;1.23;;;;;;;8.83;50.81;100713.34;4973461;28;20472;-68
2021/05/26 08:23:07;;;;;;;5.78;1.38;;;;;;;9.50;49.22;100712.63;4975448;28;20046;-66
2021/05/26 08:25:33;;;;;;;1.88;1.35;;;;;;;9.48;48.81;100714.47;4973831;28;20054;-67
2021/05/26 08:27:58;;;;;;;1.63;1.15;;;;;;;9.39;49.18;100708.69;4972534;28;20047;-66
2021/05/26 08:30:23;;;;;;;4.28;0.77;;;;;;;9.80;48.71;100713.25;4972403;28;20038;-67
2021/05/26 08:32:49;;;;;;;1.27;0.98;;;;;;;10.13;47.82;100711.06;4970645;28;20366;-67
2021/05/26 08:35:15;;;;;;;3.63;0.80;;;;;;;9.90;48.26;100703.28;4970404;28;20128;-66
2021/05/26 08:37:40;;;;;;;5.47;0.90;;;;;;;9.91;47.56;100710.22;4972224;28;20046;-66
2021/05/26 08:40:06;;;;;;;3.65;1.15;;;;;;;9.92;48.71;100701.47;4971053;28;20495;-66
2021/05/26 08:42:32;;;;;;;2.80;1.67;;;;;;;11.58;45.10;100702.16;4974164;28;20054;-66
2021/05/26 08:44:57;;;;;;;3.00;1.17;;;;;;;13.45;40.46;100691.81;4973515;28;20038;-69
2021/05/26 08:47:26;;;;;;;2.35;1.67;;;;;;;13.92;40.22;100697.09;4972855;28;20046;-65
2021/05/26 08:49:55;;;;;;;2.97;1.80;;;;;;;14.50;39.02;100692.91;4972383;28;20030;-67
2021/05/26 08:52:21;;;;;;;4.30;1.27;;;;;;;14.63;39.50;100687.72;4974554;28;20034;-68
2021/05/26 08:54:47;;;;;;;1.48;0.80;;;;;;;14.12;39.37;100684.56;4970488;28;20182;-66
2021/05/26 08:57:14;;;;;;;3.53;1.20;;;;;;;11.08;43.72;100689.63;4973492;28;20049;-66
2021/05/26 08:59:40;;;;;;;4.07;1.25;;;;;;;11.04;45.37;100687.16;4975069;28;20046;-67
2021/05/26 09:02:10;;;;;;;3.15;1.00;;;;;;;10.84;45.73;100687.22;4975273;28;20053;-67
2021/05/26 09:04:37;;;;;;;2.45;1.17;;;;;;;10.79;45.41;100686.50;4977237;28;20419;-67
2021/05/26 09:07:13;;;;;;;2.42;0.30;;;;;;;11.18;44.41;100680.47;4974018;28;20057;-66
2021/05/26 09:09:47;;;;;;;0.77;0.30;;;;;;;13.75;39.12;100673.56;4977256;28;20042;-66
2021/05/26 09:12:13;;;;;;;0.60;0.20;;;;;;;14.97;36.04;100662.00;4973554;28;20065;-66
2021/05/26 09:14:39;;;;;;;0.60;0.20;;;;;;;14.03;37.30;100661.47;4957395;28;20053;-67
2021/05/26 09:17:10;;;;;;;2.60;0.40;;;;;;;13.88;37.49;100665.84;4975383;28;20046;-68
2021/05/26 09:19:36;;;;;;;2.42;0.28;;;;;;;14.33;37.91;100664.09;4972487;28;20057;-66
2021/05/26 09:22:09;;;;;;;0.50;0.20;;;;;;;13.68;38.51;100666.97;4975560;28;20173;-66
2021/05/26 09:24:34;;;;;;;0.20;0.10;;;;;;;11.70;41.41;100670.16;4978474;28;20103;-68
2021/05/26 09:27:06;;;;;;;1.33;0.65;;;;;;;11.54;42.21;100671.81;4976226;28;20051;-67
2021/05/26 09:29:44;;;;;;;1.40;0.43;;;;;;;11.56;41.42;100670.81;4975517;28;20192;-66
2021/05/26 09:32:26;;;;;;;1.45;0.10;;;;;;;11.30;41.81;100666.81;4976972;28;20030;-66
2021/05/26 09:34:55;;;;;;;3.33;0.32;;;;;;;11.07;41.73;100665.25;4972315;28;20046;-68
2021/05/26 09:37:26;;;;;;;0.52;0.15;;;;;;;11.46;40.57;100652.09;4973157;28;20038;-67
2021/05/26 09:39:51;;;;;;;0.75;0.10;;;;;;;11.86;39.49;100658.03;4977328;28;20406;-68
2021/05/26 09:42:36;;;;;;;0.30;0.10;;;;;;;13.86;37.58;100662.44;4978193;28;20050;-68
2021/05/26 09:45:16;;;;;;;1.13;0.13;;;;;;;13.62;38.54;100652.38;4962177;28;20034;-68
2021/05/26 09:47:50;;;;;;;2.97;0.03;;;;;;;15.04;35.72;100644.06;4974931;28;20051;-67
2021/05/26 09:50:36;;;;;;;1.02;0.20;;;;;;;14.24;35.77;100652.34;4973879;28;20109;-67
2021/05/26 09:53:18;;;;;;;0.90;0.10;;;;;;;13.96;36.83;100649.63;4975517;28;20027;-67
2021/05/26 09:55:48;;;;;;;0.63;0.08;;;;;;;13.72;37.75;100650.09;4974998;28;20046;-66
2021/05/26 09:58:15;;;;;;;1.55;0.10;;;;;;;12.77;39.76;100656.13;4977205;28;20084;-67
2021/05/26 10:00:42;;;;;;;3.17;0.20;;;;;;;11.92;39.99;100656.91;4973743;28;20985;-67
2021/05/26 10:03:08;;;;;;;1.23;0.10;;;;;;;13.28;38.26;100658.66;4976711;28;20035;-67
2021/05/26 10:05:34;;;;;;;1.33;0.17;;;;;;;13.12;38.06;100661.25;4955988;28;20091;-67
2021/05/26 10:08:19;;;;;;;0.95;0.10;;;;;;;13.53;37.36;100642.38;4961637;28;20050;-67
2021/05/26 10:10:59;;;;;;;1.10;0.10;;;;;;;14.75;36.47;100644.06;4957471;28;20027;-67
2021/05/26 10:13:26;;;;;;;0.20;0.10;;;;;;;13.64;37.45;100644.44;4956109;28;20446;-65
2021/05/26 10:15:54;;;;;;;0.90;0.10;;;;;;;12.67;37.03;100642.63;4975937;28;20110;-66
2021/05/26 10:18:20;;;;;;;0.20;0.10;;;;;;;13.35;36.13;100646.88;4959994;28;20554;-67
2021/05/26 10:20:46;;;;;;;1.35;0.10;;;;;;;14.68;35.73;100638.34;4973337;28;20035;-70
2021/05/26 10:23:19;;;;;;;0.28;0.10;;;;;;;14.03;35.32;100637.81;4978457;28;20041;-68
2021/05/26 10:25:46;;;;;;;0.43;0.10;;;;;;;13.27;36.67;100639.44;4959453;28;20046;-67
2021/05/26 10:28:30;;;;;;;0.25;0.10;;;;;;;13.60;37.46;100632.41;4975691;28;20030;-67
2021/05/26 10:30:56;;;;;;;0.55;0.10;;;;;;;13.22;36.29;100617.81;4973724;28;20081;-67
2021/05/26 10:33:42;;;;;;;2.53;0.10;;;;;;;14.39;35.55;100628.69;4975569;28;20042;-67
2021/05/26 10:36:09;;;;;;;0.98;0.00;;;;;;;15.65;33.53;100631.41;4974844;28;20049;-68
2021/05/26 10:39:00;;;;;;;1.25;0.20;;;;;;;13.49;34.92;100631.19;4973808;28;20038;-67
2021/05/26 10:41:46;;;;;;;0.50;0.10;;;;;;;13.31;35.87;100619.09;4973400;28;20062;-67
2021/05/26 10:44:12;;;;;;;0.57;0.00;;;;;;;13.09;35.21;100619.44;4976271;28;20359;-67
2021/05/26 10:46:39;;;;;;;2.08;0.10;;;;;;;13.31;34.66;100621.72;4959574;28;20039;-67
2021/05/26 10:49:10;;;;;;;3.58;0.25;;;;;;;13.87;35.09;100622.94;4974210;28;20046;-67
2021/05/26 10:51:54;;;;;;;0.30;0.10;;;;;;;13.93;34.18;100627.84;4961343;28;20407;-69
2021/05/26 10:54:46;;;;;;;2.60;0.10;;;;;;;13.86;33.86;100629.13;4975242;28;20038;-70
2021/05/26 10:57:11;;;;;;;0.38;0.05;;;;;;;14.40;32.80;100625.13;4969019;28;20042;-68
2021/05/26 10:59:38;;;;;;;1.20;0.10;;;;;;;14.92;32.89;100617.53;4974514;28;20046;-68
2021/05/26 11:02:07;;;;;;;0.75;0.10;;;;;;;15.22;31.15;100599.97;4974180;28;20034;-68
2021/05/26 11:04:37;;;;;;;2.25;0.00;;;;;;;13.54;33.90;100620.44;4978957;28;20132;-69
2021/05/26 11:07:20;;;;;;;1.75;0.10;;;;;;;14.29;33.58;100612.63;4977102;28;20072;-68
2021/05/26 11:10:07;;;;;;;3.03;0.00;;;;;;;15.22;31.75;100616.59;4975195;28;20046;-69
2021/05/26 11:12:57;;;;;;;1.20;0.08;;;;;;;14.05;32.85;100614.91;4978917;28;21257;-67
2021/05/26 11:15:58;;;;;;;0.95;0.10;;;;;;;14.25;32.24;100622.47;4978359;28;20062;-68
2021/05/26 11:20:52;;;;;;;2.65;0.10;;;;;;;15.92;28.70;100626.94;4966389;28;20461;-68
2021/05/26 11:23:20;;;;;;;1.90;0.05;;;;;;;15.15;31.17;100620.53;4974688;28;20041;-68
2021/05/26 11:25:56;;;;;;;1.67;0.38;;;;;;;14.90;33.22;100618.56;4976359;28;20125;-68
2021/05/26 11:28:29;;;;;;;12.98;0.30;;;;;;;15.54;33.17;100625.03;4965769;28;20038;-68
2021/05/26 11:31:05;;;;;;;1.38;0.10;;;;;;;13.81;34.43;100614.56;4978151;28;20098;-68
2021/05/26 11:33:31;;;;;;;1.48;0.25;;;;;;;14.41;33.95;100621.59;4980588;28;20098;-69
2021/05/26 11:36:04;;;;;;;2.75;0.10;;;;;;;15.46;34.27;100615.94;4978151;28;20106;-69
2021/05/26 11:38:31;;;;;;;0.82;0.20;;;;;;;16.25;30.94;100615.13;4971289;28;20133;-69